PRIVATE WETTERSTATION BILLIGHEIM-ALLFELD                       ZURCK
Wetterdaten: Freitag, 18.04.2014
Datum Zeit Temp. A. Temp. A. min Temp. A. max Feuchte A. Luftdruck Regen Wind Richtung Richtung Sonnenschein ET Solar Taupunkt Windchill Windben Empfang
18.04.2014 00:00 4,8 C 4,7 C 5,0 C 68 % 1013,9 hPa 0,0 l/m 0,1 km/h (0 Bft) W-SW 252 0 min 0,000 mm 0 W/m -0,6 C 4,8 C 1,6 km/h (1 Bft) 98 %
18.04.2014 00:10 4,6 C 4,6 C 4,8 C 69 % 1013,7 hPa 0,0 l/m 0,0 km/h (0 Bft) W-SW 247 0 min 0,000 mm 0 W/m -0,6 C 4,6 C 1,6 km/h (1 Bft) 98 %
18.04.2014 00:20 4,5 C 4,4 C 4,6 C 69 % 1013,7 hPa 0,0 l/m 0,0 km/h (0 Bft) W-SW 247 0 min 0,000 mm 0 W/m -0,7 C 4,5 C 3,2 km/h (1 Bft) 100 %
18.04.2014 00:30 4,4 C 4,4 C 4,5 C 69 % 1013,6 hPa 0,0 l/m 0,0 km/h (0 Bft) W-SW 247 0 min 0,000 mm 0 W/m -0,8 C 4,4 C 3,2 km/h (1 Bft) 100 %
18.04.2014 00:40 4,4 C 4,3 C 4,4 C 68 % 1013,5 hPa 0,0 l/m 0,0 km/h (0 Bft) W-SW 247 0 min 0,000 mm 0 W/m -1,0 C 4,4 C 1,6 km/h (1 Bft) 100 %
18.04.2014 00:50 4,4 C 4,4 C 4,4 C 69 % 1013,3 hPa 0,0 l/m 0,0 km/h (0 Bft) N 0 0 min 0,000 mm 0 W/m -0,8 C 4,4 C 0,0 km/h (0 Bft) 100 %
18.04.2014 01:00 4,5 C 4,4 C 4,5 C 69 % 1013,2 hPa 0,0 l/m 0,0 km/h (0 Bft) W-SW 247 0 min 0,025 mm 0 W/m -0,7 C 4,5 C 1,6 km/h (1 Bft) 100 %
18.04.2014 01:10 4,5 C 4,5 C 4,6 C 70 % 1013,0 hPa 0,0 l/m 0,0 km/h (0 Bft) W-SW 247 0 min 0,000 mm 0 W/m -0,5 C 4,5 C 1,6 km/h (1 Bft) 100 %
18.04.2014 01:20 4,5 C 4,5 C 4,5 C 71 % 1012,9 hPa 0,0 l/m 0,0 km/h (0 Bft) N 0 0 min 0,000 mm 0 W/m -0,3 C 4,5 C 0,0 km/h (0 Bft) 100 %
18.04.2014 01:30 4,6 C 4,5 C 4,6 C 70 % 1012,7 hPa 0,0 l/m 0,0 km/h (0 Bft) N 0 0 min 0,000 mm 0 W/m -0,4 C 4,6 C 0,0 km/h (0 Bft) 100 %
18.04.2014 01:40 4,6 C 4,6 C 4,6 C 71 % 1012,5 hPa 0,0 l/m 0,0 km/h (0 Bft) N 0 0 min 0,000 mm 0 W/m -0,2 C 4,6 C 0,0 km/h (0 Bft) 100 %
18.04.2014 01:50 4,7 C 4,6 C 4,7 C 70 % 1012,5 hPa 0,0 l/m 0,0 km/h (0 Bft) W-SW 247 0 min 0,000 mm 0 W/m -0,3 C 4,7 C 1,6 km/h (1 Bft) 100 %
18.04.2014 02:00 4,9 C 4,7 C 4,9 C 68 % 1012,4 hPa 0,0 l/m 0,0 km/h (0 Bft) W-SW 247 0 min 0,025 mm 0 W/m -0,5 C 4,9 C 4,8 km/h (1 Bft) 100 %
18.04.2014 02:10 5,4 C 4,9 C 5,4 C 65 % 1012,2 hPa 0,0 l/m 0,0 km/h (0 Bft) W-SW 247 0 min 0,000 mm 0 W/m -0,6 C 5,4 C 3,2 km/h (1 Bft) 100 %
18.04.2014 02:20 5,9 C 5,4 C 5,9 C 63 % 1012,0 hPa 0,0 l/m 1,6 km/h (1 Bft) SO 135 0 min 0,000 mm 0 W/m -0,6 C 5,9 C 6,4 km/h (2 Bft) 99 %
18.04.2014 02:30 6,3 C 5,9 C 6,3 C 63 % 1011,9 hPa 0,0 l/m 0,0 km/h (0 Bft) SO 135 0 min 0,000 mm 0 W/m -0,2 C 6,3 C 4,8 km/h (1 Bft) 99 %
18.04.2014 02:40 6,6 C 6,3 C 6,6 C 59 % 1011,7 hPa 0,0 l/m 3,2 km/h (1 Bft) S-SO 157 0 min 0,000 mm 0 W/m -0,8 C 6,6 C 6,4 km/h (2 Bft) 100 %
18.04.2014 02:50 6,7 C 6,6 C 6,7 C 59 % 1011,6 hPa 0,0 l/m 1,6 km/h (1 Bft) S-SO 157 0 min 0,000 mm 0 W/m -0,7 C 6,7 C 6,4 km/h (2 Bft) 100 %
18.04.2014 03:00 6,8 C 6,7 C 6,8 C 58 % 1011,5 hPa 0,0 l/m 1,6 km/h (1 Bft) SO 135 0 min 0,025 mm 0 W/m -0,9 C 6,8 C 6,4 km/h (2 Bft) 100 %
18.04.2014 03:10 6,8 C 6,8 C 6,8 C 58 % 1011,5 hPa 0,0 l/m 1,6 km/h (1 Bft) SO 135 0 min 0,000 mm 0 W/m -0,9 C 6,8 C 8,0 km/h (2 Bft) 100 %
18.04.2014 03:20 6,7 C 6,7 C 6,8 C 59 % 1011,3 hPa 0,0 l/m 1,6 km/h (1 Bft) SO 135 0 min 0,000 mm 0 W/m -0,7 C 6,7 C 6,4 km/h (2 Bft) 100 %
18.04.2014 03:30 6,8 C 6,7 C 6,8 C 59 % 1011,2 hPa 0,0 l/m 1,6 km/h (1 Bft) SO 135 0 min 0,000 mm 0 W/m -0,6 C 6,8 C 6,4 km/h (2 Bft) 100 %
18.04.2014 03:40 6,7 C 6,7 C 6,8 C 61 % 1011,2 hPa 0,0 l/m 1,6 km/h (1 Bft) S-SO 157 0 min 0,000 mm 0 W/m -0,3 C 6,7 C 6,4 km/h (2 Bft) 100 %
18.04.2014 03:50 6,6 C 6,6 C 6,7 C 61 % 1011,1 hPa 0,0 l/m 0,0 km/h (0 Bft) S-SO 157 0 min 0,000 mm 0 W/m -0,4 C 6,6 C 3,2 km/h (1 Bft) 100 %
18.04.2014 04:00 6,8 C 6,6 C 6,8 C 60 % 1011,0 hPa 0,0 l/m 1,6 km/h (1 Bft) SO 135 0 min 0,025 mm 0 W/m -0,4 C 6,8 C 6,4 km/h (2 Bft) 100 %
18.04.2014 04:10 6,7 C 6,7 C 6,8 C 62 % 1010,9 hPa 0,0 l/m 0,0 km/h (0 Bft) SO 135 0 min 0,000 mm 0 W/m -0,1 C 6,7 C 1,6 km/h (1 Bft) 100 %
18.04.2014 04:20 6,7 C 6,7 C 6,7 C 61 % 1010,8 hPa 0,0 l/m 0,0 km/h (0 Bft) SO 135 0 min 0,000 mm 0 W/m -0,3 C 6,7 C 4,8 km/h (1 Bft) 100 %
18.04.2014 04:30 6,8 C 6,7 C 6,8 C 60 % 1010,7 hPa 0,0 l/m 0,0 km/h (0 Bft) SO 135 0 min 0,000 mm 0 W/m -0,4 C 6,8 C 3,2 km/h (1 Bft) 90 %
18.04.2014 04:40 6,8 C 6,8 C 6,9 C 66 % 1010,7 hPa 0,0 l/m 0,0 km/h (0 Bft) S-SW 202 0 min 0,000 mm 0 W/m 0,9 C 6,8 C 3,2 km/h (1 Bft) 100 %
18.04.2014 04:50 6,3 C 6,3 C 6,8 C 70 % 1010,7 hPa 0,0 l/m 0,0 km/h (0 Bft) S-SW 202 0 min 0,000 mm 0 W/m 1,2 C 6,3 C 1,6 km/h (1 Bft) 100 %
18.04.2014 05:00 6,1 C 6,1 C 6,3 C 70 % 1010,5 hPa 0,0 l/m 0,0 km/h (0 Bft) S-SW 202 0 min 0,025 mm 0 W/m 1,0 C 6,1 C 3,2 km/h (1 Bft) 100 %
18.04.2014 05:10 6,0 C 6,0 C 6,1 C 68 % 1010,5 hPa 0,0 l/m 1,6 km/h (1 Bft) NW 315 0 min 0,000 mm 0 W/m 0,6 C 6,0 C 8,0 km/h (2 Bft) 100 %
18.04.2014 05:20 6,2 C 6,1 C 6,2 C 70 % 1010,8 hPa 0,0 l/m 3,2 km/h (1 Bft) W-NW 292 0 min 0,000 mm 0 W/m 1,1 C 6,2 C 16,1 km/h (3 Bft) 100 %
18.04.2014 05:30 6,9 C 6,3 C 6,9 C 69 % 1010,6 hPa 0,0 l/m 4,8 km/h (1 Bft) W 270 0 min 0,000 mm 0 W/m 1,6 C 6,9 C 16,1 km/h (3 Bft) 100 %
18.04.2014 05:40 7,8 C 6,9 C 7,8 C 68 % 1010,6 hPa 0,0 l/m 4,8 km/h (1 Bft) W 270 0 min 0,000 mm 0 W/m 2,3 C 7,8 C 17,7 km/h (3 Bft) 100 %
18.04.2014 05:50 8,4 C 7,9 C 8,4 C 68 % 1010,3 hPa 0,0 l/m 9,7 km/h (2 Bft) W-SW 247 0 min 0,000 mm 0 W/m 2,8 C 6,0 C 20,9 km/h (4 Bft) 100 %
18.04.2014 06:00 8,6 C 8,5 C 8,6 C 70 % 1010,1 hPa 0,0 l/m 6,4 km/h (2 Bft) W-SW 247 0 min 0,025 mm 0 W/m 3,4 C 8,6 C 14,5 km/h (3 Bft) 100 %
18.04.2014 06:10 8,5 C 8,5 C 8,6 C 71 % 1010,2 hPa 0,0 l/m 3,2 km/h (1 Bft) W-SW 247 0 min 0,000 mm 0 W/m 3,5 C 8,5 C 9,7 km/h (2 Bft) 100 %
18.04.2014 06:20 8,3 C 8,3 C 8,5 C 72 % 1010,1 hPa 0,0 l/m 0,0 km/h (0 Bft) W-SW 247 0 min 0,000 mm 0 W/m 3,6 C 8,3 C 4,8 km/h (1 Bft) 100 %
18.04.2014 06:30 8,2 C 8,2 C 8,3 C 74 % 1010,0 hPa 0,0 l/m 0,0 km/h (0 Bft) W-SW 247 0 min 0,000 mm 0 W/m 3,8 C 8,2 C 3,2 km/h (1 Bft) 100 %
18.04.2014 06:40 8,2 C 8,1 C 8,2 C 74 % 1010,0 hPa 0,0 l/m 1,6 km/h (1 Bft) W-SW 247 0 min 0,000 mm 0 W/m 3,8 C 8,2 C 9,7 km/h (2 Bft) 100 %
18.04.2014 06:50 8,1 C 8,1 C 8,2 C 75 % 1009,9 hPa 0,0 l/m 3,2 km/h (1 Bft) SW 225 0 min 0,000 mm 0 W/m 3,9 C 8,1 C 9,7 km/h (2 Bft) 100 %
18.04.2014 07:00 7,9 C 7,9 C 8,1 C 76 % 1009,8 hPa 0,0 l/m 4,8 km/h (1 Bft) S-SW 202 0 min 0,025 mm 0 W/m 3,9 C 7,9 C 11,3 km/h (2 Bft) 90 %
18.04.2014 07:10 7,8 C 7,8 C 7,9 C 77 % 1009,7 hPa 0,1 l/m 1,6 km/h (1 Bft) S-SW 202 0 min 0,000 mm 0 W/m 4,0 C 7,8 C 8,0 km/h (2 Bft) 100 %
18.04.2014 07:20 7,7 C 7,7 C 7,9 C 78 % 1009,7 hPa 0,0 l/m 1,9 km/h (1 Bft) S-SO 161 0 min 0,003 mm 0 W/m 4,1 C 7,7 C 6,4 km/h (2 Bft) 100 %
18.04.2014 07:30 7,7 C 7,7 C 7,7 C 78 % 1009,6 hPa 0,0 l/m 2,4 km/h (1 Bft) S 175 0 min 0,000 mm 0 W/m 4,1 C 7,7 C 6,4 km/h (2 Bft) 100 %
18.04.2014 07:40 7,7 C 7,7 C 7,7 C 79 % 1009,7 hPa 0,0 l/m 0,9 km/h (0 Bft) S 184 0 min 0,000 mm 0 W/m 4,3 C 7,7 C 4,8 km/h (1 Bft) 100 %
18.04.2014 07:50 7,6 C 7,6 C 7,7 C 79 % 1009,9 hPa 0,0 l/m 0,2 km/h (0 Bft) S 180 0 min 0,000 mm 0 W/m 4,2 C 7,6 C 4,8 km/h (1 Bft) 100 %
18.04.2014 08:00 7,7 C 7,6 C 7,7 C 80 % 1010,2 hPa 0,0 l/m 3,2 km/h (1 Bft) NW 318 0 min 0,000 mm 21 W/m 4,5 C 7,7 C 9,7 km/h (2 Bft) 99 %
18.04.2014 08:10 7,7 C 7,6 C 7,7 C 78 % 1010,1 hPa 0,0 l/m 3,6 km/h (1 Bft) NW 319 0 min 0,000 mm 19 W/m 4,1 C 7,7 C 11,3 km/h (2 Bft) 100 %
18.04.2014 08:20 7,7 C 7,6 C 7,7 C 78 % 1010,1 hPa 0,0 l/m 1,9 km/h (1 Bft) N-NW 329 0 min 0,000 mm 9 W/m 4,1 C 7,7 C 6,4 km/h (2 Bft) 100 %
18.04.2014 08:30 7,7 C 7,7 C 7,7 C 77 % 1010,1 hPa 0,0 l/m 2,0 km/h (1 Bft) N-NW 339 0 min 0,000 mm 0 W/m 3,9 C 7,7 C 6,4 km/h (2 Bft) 100 %
18.04.2014 08:40 7,8 C 7,7 C 7,8 C 77 % 1010,2 hPa 0,0 l/m 3,0 km/h (1 Bft) NW 323 0 min 0,000 mm 0 W/m 4,0 C 7,8 C 14,5 km/h (3 Bft) 100 %
18.04.2014 08:50 7,9 C 7,8 C 7,9 C 77 % 1010,1 hPa 0,0 l/m 7,2 km/h (2 Bft) NW 312 0 min 0,000 mm 0 W/m 4,1 C 7,3 C 14,5 km/h (3 Bft) 99 %
18.04.2014 09:00 7,9 C 7,9 C 7,9 C 78 % 1010,2 hPa 0,0 l/m 7,0 km/h (2 Bft) NW 320 0 min 0,025 mm 0 W/m 4,3 C 7,4 C 17,7 km/h (3 Bft) 100 %
18.04.2014 09:10 7,9 C 7,9 C 7,9 C 78 % 1010,4 hPa 0,0 l/m 9,3 km/h (2 Bft) NW 325 0 min 0,000 mm 0 W/m 4,3 C 5,7 C 20,9 km/h (4 Bft) 100 %
18.04.2014 09:20 7,8 C 7,8 C 7,9 C 79 % 1010,6 hPa 0,0 l/m 9,1 km/h (2 Bft) NW 318 0 min 0,000 mm 16 W/m 4,4 C 5,8 C 17,7 km/h (3 Bft) 100 %
18.04.2014 09:30 7,6 C 7,6 C 7,8 C 79 % 1010,5 hPa 0,0 l/m 9,1 km/h (2 Bft) N-NW 329 0 min 0,000 mm 19 W/m 4,2 C 5,5 C 19,3 km/h (3 Bft) 100 %
18.04.2014 09:40 7,5 C 7,5 C 7,6 C 80 % 1010,5 hPa 0,0 l/m 6,8 km/h (2 Bft) NW 323 0 min 0,000 mm 21 W/m 4,3 C 7,2 C 19,3 km/h (3 Bft) 100 %
18.04.2014 09:50 7,4 C 7,4 C 7,5 C 82 % 1010,5 hPa 0,0 l/m 4,8 km/h (1 Bft) N-NW 346 0 min 0,000 mm 21 W/m 4,5 C 7,4 C 14,5 km/h (3 Bft) 100 %
18.04.2014 10:00 7,3 C 7,3 C 7,4 C 82 % 1010,5 hPa 0,0 l/m 7,5 km/h (2 Bft) NW 322 0 min 0,026 mm 14 W/m 4,4 C 6,4 C 20,9 km/h (4 Bft) 99 %
18.04.2014 10:10 7,2 C 7,2 C 7,3 C 83 % 1010,5 hPa 0,0 l/m 7,8 km/h (2 Bft) N 9 0 min 0,000 mm 14 W/m 4,5 C 6,1 C 19,3 km/h (3 Bft) 100 %
18.04.2014 10:20 7,2 C 7,2 C 7,3 C 83 % 1010,6 hPa 0,0 l/m 6,5 km/h (2 Bft) NW 324 0 min 0,000 mm 11 W/m 4,5 C 7,1 C 16,1 km/h (3 Bft) 100 %
18.04.2014 10:30 7,2 C 7,2 C 7,2 C 84 % 1010,8 hPa 0,0 l/m 6,5 km/h (2 Bft) N-NW 329 0 min 0,000 mm 19 W/m 4,7 C 7,1 C 19,3 km/h (3 Bft) 100 %
18.04.2014 10:40 7,1 C 7,1 C 7,2 C 83 % 1010,8 hPa 0,0 l/m 6,1 km/h (2 Bft) N-NW 339 0 min 0,000 mm 25 W/m 4,4 C 7,1 C 19,3 km/h (3 Bft) 100 %
18.04.2014 10:50 7,1 C 7,1 C 7,1 C 81 % 1010,9 hPa 0,0 l/m 4,5 km/h (1 Bft) N-NW 329 0 min 0,000 mm 19 W/m 4,1 C 7,1 C 16,1 km/h (3 Bft) 100 %
18.04.2014 11:00 7,1 C 7,1 C 7,1 C 80 % 1011,1 hPa 0,0 l/m 6,1 km/h (2 Bft) N-NW 331 0 min 0,025 mm 40 W/m 3,9 C 7,1 C 17,7 km/h (3 Bft) 100 %
18.04.2014 11:10 7,2 C 7,1 C 7,2 C 79 % 1011,0 hPa 0,0 l/m 6,1 km/h (2 Bft) N-NW 345 0 min 0,000 mm 70 W/m 3,8 C 7,2 C 14,5 km/h (3 Bft) 100 %
18.04.2014 11:20 7,3 C 7,2 C 7,3 C 80 % 1011,2 hPa 0,0 l/m 1,9 km/h (1 Bft) N-NW 348 0 min 0,000 mm 63 W/m 4,1 C 7,3 C 9,7 km/h (2 Bft) 100 %
18.04.2014 11:30 7,4 C 7,3 C 7,4 C 79 % 1011,3 hPa 0,0 l/m 2,7 km/h (1 Bft) N-NW 337 0 min 0,000 mm 81 W/m 4,0 C 7,4 C 11,3 km/h (2 Bft) 100 %
18.04.2014 11:40 7,6 C 7,4 C 7,6 C 79 % 1011,1 hPa 0,0 l/m 2,6 km/h (1 Bft) NW 323 0 min 0,000 mm 83 W/m 4,2 C 7,6 C 9,7 km/h (2 Bft) 100 %
18.04.2014 11:50 7,6 C 7,6 C 7,6 C 78 % 1011,2 hPa 0,0 l/m 2,5 km/h (1 Bft) NW 307 0 min 0,000 mm 65 W/m 4,0 C 7,6 C 11,3 km/h (2 Bft) 100 %
18.04.2014 12:00 7,6 C 7,6 C 7,6 C 77 % 1011,3 hPa 0,0 l/m 0,6 km/h (0 Bft) N-NW 337 0 min 0,025 mm 60 W/m 3,8 C 7,6 C 6,4 km/h (2 Bft) 100 %
18.04.2014 12:10 7,7 C 7,6 C 7,7 C 79 % 1011,4 hPa 0,0 l/m 0,8 km/h (0 Bft) NW 324 0 min 0,000 mm 121 W/m 4,3 C 7,7 C 6,4 km/h (2 Bft) 100 %
18.04.2014 12:20 7,8 C 7,7 C 7,8 C 79 % 1011,4 hPa 0,0 l/m 1,1 km/h (1 Bft) NW 315 0 min 0,000 mm 121 W/m 4,4 C 7,8 C 8,0 km/h (2 Bft) 100 %
18.04.2014 12:30 8,0 C 7,8 C 8,0 C 78 % 1011,3 hPa 0,0 l/m 0,1 km/h (0 Bft) NW 315 10 min 0,000 mm 264 W/m 4,4 C 8,0 C 1,6 km/h (1 Bft) 100 %
18.04.2014 12:40 8,3 C 8,0 C 8,3 C 76 % 1011,4 hPa 0,0 l/m 0,7 km/h (0 Bft) NW 325 10 min 0,000 mm 285 W/m 4,3 C 8,3 C 6,4 km/h (2 Bft) 100 %
18.04.2014 12:50 8,8 C 8,3 C 8,8 C 72 % 1011,2 hPa 0,0 l/m 0,8 km/h (0 Bft) NW 318 10 min 0,000 mm 244 W/m 4,0 C 8,8 C 6,4 km/h (2 Bft) 100 %
18.04.2014 13:00 9,0 C 8,8 C 9,0 C 71 % 1011,2 hPa 0,0 l/m 0,5 km/h (0 Bft) N 5 10 min 0,102 mm 227 W/m 4,0 C 9,0 C 6,4 km/h (2 Bft) 100 %
18.04.2014 13:10 8,8 C 8,8 C 9,0 C 69 % 1011,1 hPa 0,0 l/m 0,0 km/h (0 Bft) N 360 0 min 0,000 mm 98 W/m 3,4 C 8,8 C 1,6 km/h (1 Bft) 100 %
18.04.2014 13:20 8,6 C 8,6 C 8,8 C 73 % 1011,2 hPa 0,1 l/m 0,1 km/h (0 Bft) N 360 0 min 0,000 mm 93 W/m 4,0 C 8,6 C 3,2 km/h (1 Bft) 100 %
18.04.2014 13:30 8,5 C 8,5 C 8,6 C 76 % 1011,1 hPa 0,0 l/m 0,6 km/h (0 Bft) W 275 10 min 0,000 mm 193 W/m 4,5 C 8,5 C 6,4 km/h (2 Bft) 99 %
18.04.2014 13:40 8,6 C 8,5 C 8,6 C 78 % 1011,1 hPa 0,0 l/m 2,6 km/h (1 Bft) SW 222 10 min 0,000 mm 318 W/m 5,0 C 8,6 C 9,7 km/h (2 Bft) 100 %
18.04.2014 13:50 8,6 C 8,6 C 8,7 C 77 % 1011,3 hPa 0,0 l/m 6,9 km/h (2 Bft) SW 221 10 min 0,000 mm 301 W/m 4,8 C 8,2 C 16,1 km/h (3 Bft) 100 %
18.04.2014 14:00 8,8 C 8,6 C 8,8 C 75 % 1011,1 hPa 0,0 l/m 4,5 km/h (1 Bft) W 264 10 min 0,102 mm 638 W/m 4,6 C 8,8 C 9,7 km/h (2 Bft) 100 %
18.04.2014 14:10 9,3 C 8,8 C 9,3 C 77 % 1010,9 hPa 0,0 l/m 4,9 km/h (1 Bft) W-SW 250 10 min 0,000 mm 682 W/m 5,5 C 9,3 C 14,5 km/h (3 Bft) 100 %
18.04.2014 14:20 9,9 C 9,3 C 9,9 C 73 % 1010,8 hPa 0,0 l/m 10,0 km/h (2 Bft) S-SW 199 10 min 0,000 mm 821 W/m 5,3 C 7,5 C 17,7 km/h (3 Bft) 100 %
18.04.2014 14:30 10,6 C 9,9 C 10,6 C 73 % 1010,8 hPa 0,0 l/m 7,4 km/h (2 Bft) S-SW 199 10 min 0,000 mm 257 W/m 6,0 C 9,9 C 16,1 km/h (3 Bft) 99 %
18.04.2014 14:40 9,9 C 9,9 C 10,6 C 68 % 1010,8 hPa 0,0 l/m 4,4 km/h (1 Bft) S-SW 201 10 min 0,000 mm 167 W/m 4,3 C 9,9 C 16,1 km/h (3 Bft) 100 %
18.04.2014 14:50 9,5 C 9,5 C 9,9 C 72 % 1010,9 hPa 0,0 l/m 2,5 km/h (1 Bft) S-SO 159 0 min 0,000 mm 139 W/m 4,7 C 9,5 C 9,7 km/h (2 Bft) 100 %
18.04.2014 15:00 9,9 C 9,4 C 9,9 C 73 % 1010,7 hPa 0,0 l/m 8,0 km/h (2 Bft) S-SW 205 10 min 0,254 mm 882 W/m 5,3 C 8,7 C 17,7 km/h (3 Bft) 100 %
18.04.2014 15:10 10,2 C 9,9 C 10,3 C 70 % 1010,7 hPa 0,0 l/m 9,0 km/h (2 Bft) SW 223 0 min 0,000 mm 54 W/m 5,0 C 8,4 C 24,1 km/h (4 Bft) 100 %
18.04.2014 15:20 9,4 C 9,4 C 10,2 C 71 % 1011,0 hPa 0,2 l/m 8,0 km/h (2 Bft) NW 305 0 min 0,000 mm 0 W/m 4,4 C 8,2 C 25,7 km/h (4 Bft) 100 %
18.04.2014 15:30 8,2 C 8,2 C 9,4 C 72 % 1011,0 hPa 0,4 l/m 6,1 km/h (2 Bft) NW 316 0 min 0,000 mm 28 W/m 3,5 C 8,2 C 27,4 km/h (4 Bft) 100 %
18.04.2014 15:40 7,4 C 7,4 C 8,2 C 73 % 1010,9 hPa 0,0 l/m 10,0 km/h (2 Bft) W-NW 294 0 min 0,000 mm 123 W/m 2,9 C 4,7 C 30,6 km/h (5 Bft) 100 %
18.04.2014 15:50 7,3 C 7,3 C 7,4 C 76 % 1010,9 hPa 0,0 l/m 5,7 km/h (1 Bft) N-NW 333 10 min 0,000 mm 172 W/m 3,4 C 7,3 C 16,1 km/h (3 Bft) 99 %
18.04.2014 16:00 7,3 C 7,3 C 7,3 C 73 % 1011,1 hPa 0,0 l/m 2,3 km/h (1 Bft) N-NW 327 10 min 0,076 mm 172 W/m 2,8 C 7,3 C 9,7 km/h (2 Bft) 100 %
18.04.2014 16:10 7,4 C 7,3 C 7,4 C 74 % 1011,2 hPa 0,0 l/m 4,2 km/h (1 Bft) O-SO 119 10 min 0,000 mm 294 W/m 3,1 C 7,4 C 14,5 km/h (3 Bft) 100 %
18.04.2014 16:20 7,8 C 7,4 C 7,8 C 74 % 1011,2 hPa 0,0 l/m 6,2 km/h (2 Bft) O 92 10 min 0,000 mm 585 W/m 3,5 C 7,8 C 16,1 km/h (3 Bft) 100 %
18.04.2014 16:30 8,2 C 7,8 C 8,2 C 71 % 1011,3 hPa 0,2 l/m 5,0 km/h (1 Bft) SO 134 10 min 0,000 mm 206 W/m 3,3 C 8,2 C 14,5 km/h (3 Bft) 100 %
18.04.2014 16:40 7,7 C 7,7 C 8,2 C 70 % 1011,5 hPa 0,0 l/m 4,1 km/h (1 Bft) SO 133 0 min 0,000 mm 95 W/m 2,6 C 7,7 C 14,5 km/h (3 Bft) 100 %
18.04.2014 16:50 7,3 C 7,3 C 7,7 C 74 % 1011,8 hPa 0,0 l/m 2,8 km/h (1 Bft) S-SW 198 10 min 0,000 mm 214 W/m 3,0 C 7,3 C 9,7 km/h (2 Bft) 100 %
18.04.2014 17:00 7,6 C 7,3 C 7,6 C 75 % 1011,8 hPa 0,0 l/m 3,9 km/h (1 Bft) S-SW 206 0 min 0,127 mm 130 W/m 3,5 C 7,6 C 16,1 km/h (3 Bft) 100 %
18.04.2014 17:10 7,3 C 7,3 C 7,6 C 75 % 1011,6 hPa 0,0 l/m 7,1 km/h (2 Bft) S-SW 194 0 min 0,000 mm 132 W/m 3,2 C 6,7 C 16,1 km/h (3 Bft) 100 %
18.04.2014 17:20 7,1 C 7,1 C 7,3 C 74 % 1011,5 hPa 0,0 l/m 5,7 km/h (1 Bft) S 191 0 min 0,000 mm 72 W/m 2,8 C 7,1 C 14,5 km/h (3 Bft) 100 %
18.04.2014 17:30 7,3 C 7,1 C 7,3 C 74 % 1011,5 hPa 0,0 l/m 5,4 km/h (1 Bft) S-SO 158 0 min 0,000 mm 42 W/m 3,0 C 7,3 C 11,3 km/h (2 Bft) 100 %
18.04.2014 17:40 7,7 C 7,3 C 7,7 C 72 % 1011,6 hPa 0,0 l/m 6,2 km/h (2 Bft) S 170 0 min 0,000 mm 40 W/m 3,0 C 7,7 C 14,5 km/h (3 Bft) 100 %
18.04.2014 17:50 7,8 C 7,7 C 7,8 C 72 % 1011,5 hPa 0,0 l/m 7,8 km/h (2 Bft) O-SO 121 0 min 0,000 mm 51 W/m 3,1 C 6,7 C 19,3 km/h (3 Bft) 100 %
18.04.2014 18:00 8,0 C 7,8 C 8,0 C 74 % 1011,5 hPa 0,0 l/m 5,7 km/h (1 Bft) S 180 0 min 0,051 mm 46 W/m 3,7 C 8,0 C 16,1 km/h (3 Bft) 100 %
18.04.2014 18:10 8,1 C 8,0 C 8,1 C 72 % 1011,7 hPa 0,0 l/m 5,9 km/h (2 Bft) S-SW 194 0 min 0,000 mm 51 W/m 3,4 C 8,1 C 14,5 km/h (3 Bft) 100 %
18.04.2014 18:20 8,0 C 8,0 C 8,1 C 71 % 1011,9 hPa 0,0 l/m 5,8 km/h (2 Bft) O-SO 117 0 min 0,000 mm 54 W/m 3,1 C 8,0 C 16,1 km/h (3 Bft) 100 %
18.04.2014 18:30 7,7 C 7,7 C 8,0 C 72 % 1012,1 hPa 0,0 l/m 7,5 km/h (2 Bft) SO 125 0 min 0,000 mm 60 W/m 3,0 C 6,8 C 19,3 km/h (3 Bft) 100 %
18.04.2014 18:40 7,4 C 7,4 C 7,7 C 74 % 1012,0 hPa 0,0 l/m 4,0 km/h (1 Bft) S-SW 207 0 min 0,000 mm 134 W/m 3,1 C 7,4 C 14,5 km/h (3 Bft) 100 %
18.04.2014 18:50 7,6 C 7,4 C 7,6 C 73 % 1012,1 hPa 0,0 l/m 2,5 km/h (1 Bft) S-SW 205 0 min 0,000 mm 90 W/m 3,1 C 7,6 C 8,0 km/h (2 Bft) 100 %
18.04.2014 19:00 7,3 C 7,3 C 7,6 C 75 % 1012,1 hPa 0,0 l/m 4,0 km/h (1 Bft) SO 136 0 min 0,050 mm 100 W/m 3,2 C 7,3 C 11,3 km/h (2 Bft) 100 %
18.04.2014 19:10 7,4 C 7,3 C 7,4 C 78 % 1012,1 hPa 0,0 l/m 1,6 km/h (1 Bft) SO 132 0 min 0,000 mm 102 W/m 3,8 C 7,4 C 9,7 km/h (2 Bft) 91 %
18.04.2014 19:20 7,4 C 7,4 C 7,5 C 78 % 1012,0 hPa 0,0 l/m 3,6 km/h (1 Bft) S-SO 148 0 min 0,000 mm 86 W/m 3,8 C 7,4 C 12,9 km/h (3 Bft) 100 %
18.04.2014 19:30 7,5 C 7,4 C 7,5 C 80 % 1012,3 hPa 0,0 l/m 1,8 km/h (1 Bft) S-SW 200 0 min 0,000 mm 35 W/m 4,3 C 7,5 C 8,0 km/h (2 Bft) 100 %
18.04.2014 19:40 7,4 C 7,4 C 7,5 C 79 % 1012,5 hPa 0,0 l/m 0,0 km/h (0 Bft) S-SW 213 0 min 0,000 mm 0 W/m 4,0 C 7,4 C 0,0 km/h (0 Bft) 100 %
18.04.2014 19:50 7,3 C 7,3 C 7,4 C 82 % 1012,3 hPa 0,0 l/m 2,2 km/h (1 Bft) S-SW 213 0 min 0,000 mm 0 W/m 4,4 C 7,3 C 6,4 km/h (2 Bft) 99 %
18.04.2014 20:00 7,1 C 7,1 C 7,3 C 83 % 1012,2 hPa 0,2 l/m 0,8 km/h (0 Bft) SW 217 0 min 0,026 mm 21 W/m 4,4 C 7,1 C 6,4 km/h (2 Bft) 100 %
18.04.2014 20:10 6,8 C 6,8 C 7,1 C 82 % 1012,3 hPa 0,0 l/m 0,4 km/h (0 Bft) W-SW 257 0 min 0,000 mm 11 W/m 3,9 C 6,8 C 4,8 km/h (1 Bft) 100 %
18.04.2014 20:20 6,6 C 6,6 C 6,8 C 84 % 1012,5 hPa 0,0 l/m 0,6 km/h (0 Bft) W-SW 257 0 min 0,000 mm 0 W/m 4,1 C 6,6 C 3,2 km/h (1 Bft) 100 %
18.04.2014 20:30 6,4 C 6,4 C 6,6 C 84 % 1012,9 hPa 0,0 l/m 0,3 km/h (0 Bft) W-SW 257 0 min 0,000 mm 0 W/m 3,9 C 6,4 C 3,2 km/h (1 Bft) 100 %
18.04.2014 20:40 6,2 C 6,2 C 6,4 C 85 % 1013,1 hPa 0,0 l/m 0,8 km/h (0 Bft) O-NO 70 0 min 0,000 mm 0 W/m 3,9 C 6,2 C 8,0 km/h (2 Bft) 100 %
18.04.2014 20:50 6,1 C 6,1 C 6,2 C 85 % 1013,2 hPa 0,0 l/m 0,3 km/h (0 Bft) O-SO 109 0 min 0,000 mm 0 W/m 3,8 C 6,1 C 3,2 km/h (1 Bft) 100 %
18.04.2014 21:00 5,9 C 5,9 C 6,1 C 84 % 1013,3 hPa 0,0 l/m 0,0 km/h (0 Bft) O-SO 110 0 min 0,000 mm 0 W/m 3,4 C 5,9 C 1,6 km/h (1 Bft) 100 %
18.04.2014 21:10 5,7 C 5,7 C 5,9 C 85 % 1013,4 hPa 0,0 l/m 0,5 km/h (0 Bft) S-SO 159 0 min 0,000 mm 0 W/m 3,4 C 5,7 C 3,2 km/h (1 Bft) 100 %
18.04.2014 21:20 5,5 C 5,4 C 5,7 C 85 % 1013,6 hPa 0,0 l/m 0,3 km/h (0 Bft) SO 127 0 min 0,000 mm 0 W/m 3,2 C 5,5 C 4,8 km/h (1 Bft) 100 %
18.04.2014 21:30 5,4 C 5,4 C 5,5 C 86 % 1013,8 hPa 0,0 l/m 0,0 km/h (0 Bft) NO 34 0 min 0,000 mm 0 W/m 3,3 C 5,4 C 1,6 km/h (1 Bft) 100 %
18.04.2014 21:40 5,3 C 5,3 C 5,4 C 86 % 1013,7 hPa 0,0 l/m 0,0 km/h (0 Bft) NO 34 0 min 0,000 mm 0 W/m 3,2 C 5,3 C 0,0 km/h (0 Bft) 100 %
18.04.2014 21:50 5,2 C 5,2 C 5,3 C 86 % 1013,7 hPa 0,0 l/m 0,1 km/h (0 Bft) NO 34 0 min 0,000 mm 0 W/m 3,1 C 5,2 C 3,2 km/h (1 Bft) 100 %
18.04.2014 22:00 5,1 C 5,1 C 5,2 C 86 % 1013,8 hPa 0,0 l/m 0,0 km/h (0 Bft) NO 34 0 min 0,000 mm 0 W/m 3,0 C 5,1 C 0,0 km/h (0 Bft) 100 %
18.04.2014 22:10 4,9 C 4,9 C 5,1 C 86 % 1013,7 hPa 0,0 l/m 0,7 km/h (0 Bft) O-NO 76 0 min 0,000 mm 0 W/m 2,8 C 4,9 C 3,2 km/h (1 Bft) 100 %
18.04.2014 22:20 4,8 C 4,8 C 4,9 C 86 % 1013,6 hPa 0,0 l/m 0,5 km/h (0 Bft) O-SO 108 0 min 0,000 mm 0 W/m 2,7 C 4,8 C 3,2 km/h (1 Bft) 100 %
18.04.2014 22:30 4,7 C 4,7 C 4,8 C 86 % 1013,7 hPa 0,0 l/m 0,0 km/h (0 Bft) O-SO 108 0 min 0,000 mm 0 W/m 2,6 C 4,7 C 0,0 km/h (0 Bft) 100 %
18.04.2014 22:40 4,7 C 4,7 C 4,7 C 87 % 1013,7 hPa 0,0 l/m 0,0 km/h (0 Bft) O-SO 108 0 min 0,000 mm 0 W/m 2,7 C 4,7 C 0,0 km/h (0 Bft) 100 %
18.04.2014 22:50 4,6 C 4,6 C 4,7 C 87 % 1013,7 hPa 0,0 l/m 0,0 km/h (0 Bft) O-SO 108 0 min 0,000 mm 0 W/m 2,6 C 4,6 C 0,0 km/h (0 Bft) 100 %
18.04.2014 23:00 4,5 C 4,5 C 4,6 C 87 % 1013,6 hPa 0,0 l/m 0,0 km/h (0 Bft) O-SO 108 0 min 0,000 mm 0 W/m 2,5 C 4,5 C 0,0 km/h (0 Bft) 100 %
18.04.2014 23:10 4,3 C 4,3 C 4,5 C 87 % 1013,7 hPa 0,0 l/m 0,0 km/h (0 Bft) O-SO 108 0 min 0,000 mm 0 W/m 2,3 C 4,3 C 0,0 km/h (0 Bft) 100 %
18.04.2014 23:20 4,2 C 4,2 C 4,3 C 87 % 1013,6 hPa 0,0 l/m 0,0 km/h (0 Bft) O-SO 108 0 min 0,000 mm 0 W/m 2,2 C 4,2 C 0,0 km/h (0 Bft) 100 %
18.04.2014 23:30 4,1 C 4,1 C 4,2 C 87 % 1013,8 hPa 0,0 l/m 0,0 km/h (0 Bft) O-SO 108 0 min 0,000 mm 0 W/m 2,1 C 4,1 C 0,0 km/h (0 Bft) 100 %
18.04.2014 23:40 4,0 C 4,0 C 4,1 C 87 % 1013,9 hPa 0,0 l/m 0,0 km/h (0 Bft) O-SO 108 0 min 0,000 mm 0 W/m 2,0 C 4,0 C 0,0 km/h (0 Bft) 100 %
18.04.2014 23:50 3,8 C 3,8 C 4,0 C 87 % 1013,7 hPa 0,0 l/m 0,2 km/h (0 Bft) O-SO 105 0 min 0,000 mm 0 W/m 1,8 C 3,8 C 3,2 km/h (1 Bft) 100 %
_ Min-Zeit 23:50 23:50 23:50 03:00 07:30 - 00:10 - - - - - 00:40 23:50 00:50 04:30
Minimum _ 3,8 C 3,8 C 4,0 C 58 % 1009,6 hPa - 0,0 km/h (0 Bft) - - - - - -1,0 C 3,8 C 0,0 km/h (0 Bft) 90 %
_ Max-Zeit 14:30 14:30 14:30 22:40 00:00 15:30 14:20 - - 12:30 15:00 15:00 14:30 14:40 15:40 00:20
Maximum _ 10,6 C 9,9 C 10,6 C 87 % 1013,9 hPa 0,4 l/m 10,0 km/h
S-SW (2 Bft)
- - 10 min 0,254 mm 882 W/m 6,0 C 9,9 C 30,6 km/h
W-NW (5 Bft)
100 %
Durchschnitt _ 7,0 C 6,9 C 7,1 C 75 % 1011,6 hPa #1,2 l/m 2,8 km/h (1 Bft) NW - #3:10 h #1,067 mm 148 W/m 2,8 C 6,8 C 9,0 km/h (2 Bft) 100 %
PRIVATE WETTERSTATION BILLIGHEIM-ALLFELD - www.neckar-odenwald-wetter.de - Holger Sonntag